createdAt,value
2017-05-13T00:00:25.803Z,96.60
2017-05-13T00:02:53.735Z,96.80
2017-05-13T00:05:20.963Z,96.70
2017-05-13T00:07:48.278Z,96.50
2017-05-13T00:10:15.531Z,96.20
2017-05-13T00:12:42.711Z,95.90
2017-05-13T00:15:09.951Z,95.70
2017-05-13T00:17:37.241Z,95.90
2017-05-13T00:20:04.386Z,95.20
2017-05-13T00:22:31.557Z,95.90
2017-05-13T00:24:58.765Z,94.90
2017-05-13T00:27:25.984Z,94.90
2017-05-13T00:29:53.179Z,95.20
2017-05-13T00:32:20.359Z,95.40
2017-05-13T00:34:47.579Z,96.10
2017-05-13T00:37:14.740Z,96.10
2017-05-13T00:39:41.892Z,95.90
2017-05-13T00:42:09.073Z,95.60
2017-05-13T00:44:37.028Z,95.30
2017-05-13T00:47:04.920Z,94.80
2017-05-13T00:49:32.099Z,95.00
2017-05-13T00:51:59.355Z,95.20
2017-05-13T00:54:26.525Z,95.00
2017-05-13T00:56:53.665Z,95.20
2017-05-13T00:59:21.062Z,95.30
2017-05-13T01:01:48.984Z,95.00
2017-05-13T01:04:16.225Z,94.50
2017-05-13T01:06:43.472Z,94.30
2017-05-13T01:09:10.677Z,94.60
2017-05-13T01:11:38.616Z,94.90
2017-05-13T01:14:05.887Z,95.20
2017-05-13T01:16:33.795Z,95.60
2017-05-13T01:19:00.994Z,95.50
2017-05-13T01:21:28.316Z,95.50
2017-05-13T01:23:55.689Z,95.50
2017-05-13T01:26:22.880Z,95.40
2017-05-13T01:28:50.783Z,95.40
2017-05-13T01:31:17.932Z,95.30
2017-05-13T01:33:45.115Z,95.00
2017-05-13T01:36:12.260Z,94.80
2017-05-13T01:38:39.487Z,94.60
2017-05-13T01:41:06.668Z,95.00
2017-05-13T01:43:33.808Z,95.10
2017-05-13T01:46:00.988Z,95.00
2017-05-13T01:48:28.955Z,95.50
2017-05-13T01:50:56.898Z,95.30
2017-05-13T01:53:24.060Z,95.30
2017-05-13T01:55:52.691Z,95.50
2017-05-13T01:58:19.908Z,95.90
2017-05-13T02:00:47.060Z,96.10
2017-05-13T02:03:15.024Z,96.00
2017-05-13T02:05:42.957Z,95.80
2017-05-13T02:08:10.126Z,96.00
2017-05-13T02:10:37.296Z,95.70
2017-05-13T02:13:04.531Z,96.00
2017-05-13T02:15:35.603Z,95.60
2017-05-13T02:18:02.939Z,95.60
2017-05-13T02:20:30.196Z,95.70
2017-05-13T02:22:57.380Z,95.90
2017-05-13T02:25:24.573Z,95.60
2017-05-13T02:27:52.484Z,95.50
2017-05-13T02:30:19.689Z,95.50
2017-05-13T02:32:46.880Z,95.20
2017-05-13T02:35:14.244Z,96.00
2017-05-13T02:37:41.433Z,96.20
2017-05-13T02:40:08.655Z,96.40
2017-05-13T02:42:35.808Z,96.70
2017-05-13T02:45:03.084Z,96.50
2017-05-13T02:47:30.310Z,96.80
2017-05-13T02:49:57.481Z,97.00
2017-05-13T02:52:24.681Z,96.90
2017-05-13T02:54:51.864Z,96.90
2017-05-13T02:57:19.022Z,97.00
2017-05-13T02:59:46.194Z,97.10
2017-05-13T03:02:13.407Z,97.30
2017-05-13T03:04:40.820Z,97.10
2017-05-13T03:07:07.980Z,97.30
2017-05-13T03:09:35.192Z,97.10
2017-05-13T03:12:02.381Z,97.20
2017-05-13T03:14:29.548Z,96.90
2017-05-13T03:16:56.730Z,97.40
2017-05-13T03:19:24.104Z,96.70
2017-05-13T03:21:52.033Z,96.80
2017-05-13T03:24:19.201Z,97.10
2017-05-13T03:26:46.396Z,97.00
2017-05-13T03:29:13.724Z,97.10
2017-05-13T03:31:41.655Z,96.90
2017-05-13T03:34:08.912Z,97.40
2017-05-13T03:36:36.098Z,97.50
2017-05-13T03:39:04.028Z,97.90
2017-05-13T03:41:31.193Z,97.70
2017-05-13T03:43:58.432Z,97.60
2017-05-13T03:46:25.657Z,97.70
2017-05-13T03:48:52.812Z,97.60
2017-05-13T03:51:19.970Z,97.60
2017-05-13T03:53:47.480Z,97.50
2017-05-13T03:56:15.571Z,97.60
2017-05-13T03:58:42.712Z,97.50
2017-05-13T04:01:11.727Z,97.60
2017-05-13T04:03:38.881Z,97.40
2017-05-13T04:06:06.050Z,97.10
2017-05-13T04:08:33.224Z,97.20
2017-05-13T04:11:01.173Z,97.10
2017-05-13T04:13:28.304Z,97.10
2017-05-13T04:15:55.613Z,97.20
2017-05-13T04:18:23.526Z,96.90
2017-05-13T04:20:50.719Z,96.40
2017-05-13T04:23:18.705Z,96.30
2017-05-13T04:25:46.631Z,96.20
2017-05-13T04:28:13.918Z,96.20
2017-05-13T04:30:41.865Z,95.80
2017-05-13T04:33:09.049Z,95.80
2017-05-13T04:35:36.255Z,96.70
2017-05-13T04:38:03.509Z,97.20
2017-05-13T04:40:30.701Z,97.10
2017-05-13T04:42:57.967Z,96.70
2017-05-13T04:45:25.356Z,96.50
2017-05-13T04:47:52.548Z,96.30
2017-05-13T04:50:20.474Z,96.30
2017-05-13T04:52:47.676Z,96.30
2017-05-13T04:55:14.831Z,96.30
2017-05-13T04:57:42.177Z,96.10
2017-05-13T05:00:09.516Z,96.30
2017-05-13T05:02:37.435Z,96.20
2017-05-13T05:05:04.603Z,96.20
2017-05-13T05:07:31.821Z,95.90
2017-05-13T05:09:58.997Z,95.90
2017-05-13T05:12:26.172Z,96.00
2017-05-13T05:14:54.116Z,95.90
2017-05-13T05:17:21.356Z,95.60
2017-05-13T05:19:48.499Z,95.40
2017-05-13T05:22:15.700Z,96.00
2017-05-13T05:24:43.640Z,95.80
2017-05-13T05:27:10.845Z,95.10
2017-05-13T05:29:38.009Z,93.90
2017-05-13T05:32:05.281Z,93.60
2017-05-13T05:34:32.562Z,93.30
2017-05-13T05:37:00.476Z,93.00
2017-05-13T05:39:27.775Z,92.50
2017-05-13T05:41:54.952Z,92.90
2017-05-13T05:44:22.101Z,91.70
2017-05-13T05:46:49.315Z,93.10
2017-05-13T05:49:16.463Z,92.20
2017-05-13T05:51:43.663Z,90.60
2017-05-13T05:54:10.825Z,88.60
2017-05-13T05:56:38.051Z,87.60
2017-05-13T05:59:05.235Z,88.90
2017-05-13T06:01:32.415Z,87.10
2017-05-13T06:03:59.632Z,87.20
2017-05-13T06:06:26.847Z,84.90
2017-05-13T06:08:54.009Z,83.50
2017-05-13T06:11:21.187Z,81.70
2017-05-13T06:13:48.357Z,80.00
2017-05-13T06:16:15.561Z,77.80
2017-05-13T06:18:42.760Z,73.50
2017-05-13T06:21:09.939Z,68.30
2017-05-13T06:23:37.851Z,68.20
2017-05-13T06:26:05.042Z,71.00
2017-05-13T06:28:33.057Z,73.20
2017-05-13T06:31:00.393Z,74.20
2017-05-13T06:33:27.553Z,75.80
2017-05-13T06:35:54.929Z,75.50
2017-05-13T06:38:22.133Z,71.20
2017-05-13T06:40:50.107Z,69.80
2017-05-13T06:43:17.323Z,69.00
2017-05-13T06:45:44.471Z,62.20
2017-05-13T06:48:11.655Z,57.50
2017-05-13T06:50:38.846Z,55.70
2017-05-13T06:53:06.055Z,52.00
2017-05-13T06:55:34.099Z,54.00
2017-05-13T06:58:01.275Z,56.10
2017-05-13T07:00:28.468Z,56.60
2017-05-13T07:02:55.676Z,56.40
2017-05-13T07:05:23.775Z,58.40
2017-05-13T07:07:52.230Z,61.40
2017-05-13T07:10:19.645Z,65.30
2017-05-13T07:12:46.818Z,66.10
2017-05-13T07:15:14.935Z,67.30
2017-05-13T07:17:42.304Z,67.80
2017-05-13T07:20:09.536Z,68.50
2017-05-13T07:22:36.814Z,69.80
2017-05-13T07:25:04.952Z,68.90
2017-05-13T07:27:32.152Z,69.50
2017-05-13T07:30:00.343Z,70.40
2017-05-13T07:32:27.565Z,70.00
2017-05-13T07:34:54.717Z,69.80
2017-05-13T07:37:22.009Z,70.40
2017-05-13T07:39:49.959Z,69.00
2017-05-13T07:42:17.361Z,69.40
2017-05-13T07:44:44.650Z,69.00
2017-05-13T07:47:11.836Z,67.40
2017-05-13T07:49:39.024Z,62.40
2017-05-13T07:52:06.279Z,57.40
2017-05-13T07:54:33.451Z,56.90
2017-05-13T07:57:00.647Z,56.80
2017-05-13T07:59:27.888Z,56.70
2017-05-13T08:01:55.027Z,57.80
2017-05-13T08:04:22.964Z,58.80
2017-05-13T08:06:50.223Z,58.80
2017-05-13T08:09:17.426Z,58.70
2017-05-13T08:11:44.703Z,58.30
2017-05-13T08:14:11.852Z,56.60
2017-05-13T08:16:39.025Z,56.00
2017-05-13T08:19:06.263Z,56.70
2017-05-13T08:21:33.412Z,55.90
2017-05-13T08:24:00.680Z,53.30
2017-05-13T08:26:27.860Z,53.30
2017-05-13T08:28:55.045Z,53.50
2017-05-13T08:31:22.268Z,52.50
2017-05-13T08:33:49.491Z,52.30
2017-05-13T08:36:17.411Z,52.70
2017-05-13T08:38:44.606Z,51.60
2017-05-13T08:41:11.768Z,53.00
2017-05-13T08:43:39.768Z,51.50
2017-05-13T08:46:06.971Z,51.80
2017-05-13T08:48:34.404Z,49.60
2017-05-13T08:51:01.599Z,50.40
2017-05-13T08:53:29.520Z,52.10
2017-05-13T08:55:56.715Z,50.40
2017-05-13T08:58:24.824Z,48.60
2017-05-13T09:00:53.111Z,48.10
2017-05-13T09:03:20.920Z,48.10
2017-05-13T09:05:48.871Z,47.10
2017-05-13T09:08:16.047Z,46.30
2017-05-13T09:10:44.177Z,46.20
2017-05-13T09:13:11.373Z,44.80
2017-05-13T09:15:38.636Z,44.80
2017-05-13T09:18:05.947Z,45.10
2017-05-13T09:20:33.865Z,44.60
2017-05-13T09:23:01.168Z,44.20
2017-05-13T09:25:28.398Z,43.60
2017-05-13T09:27:55.616Z,44.50
2017-05-13T09:30:22.753Z,44.60
2017-05-13T09:32:49.919Z,45.00
2017-05-13T09:35:17.120Z,46.30
2017-05-13T09:37:45.023Z,46.80
2017-05-13T09:40:12.156Z,47.80
2017-05-13T09:42:40.149Z,47.80
2017-05-13T09:45:07.707Z,45.80
2017-05-13T09:47:35.106Z,46.00
2017-05-13T09:50:02.452Z,46.30
2017-05-13T09:52:29.663Z,43.80
2017-05-13T09:54:56.821Z,44.60
2017-05-13T09:57:25.805Z,43.90
2017-05-13T09:59:52.982Z,43.50
2017-05-13T10:02:20.139Z,43.30
2017-05-13T10:04:47.336Z,42.60
2017-05-13T10:07:14.582Z,43.30
2017-05-13T10:09:42.540Z,44.70
2017-05-13T10:12:10.481Z,46.00
2017-05-13T10:14:37.714Z,47.40
2017-05-13T10:17:04.936Z,46.10
2017-05-13T10:19:32.095Z,42.30
2017-05-13T10:21:59.327Z,44.50
2017-05-13T10:24:26.591Z,42.70
2017-05-13T10:26:53.732Z,42.30
2017-05-13T10:29:21.048Z,43.60
2017-05-13T10:31:49.084Z,42.70
2017-05-13T10:34:16.245Z,37.40
2017-05-13T10:36:43.465Z,39.70
2017-05-13T10:39:10.668Z,39.70
2017-05-13T10:41:37.893Z,39.00
2017-05-13T10:44:05.115Z,38.60
2017-05-13T10:46:32.312Z,38.20
2017-05-13T10:48:59.479Z,37.50
2017-05-13T10:51:27.416Z,37.00
2017-05-13T10:53:54.611Z,38.40
2017-05-13T10:56:22.709Z,37.00
2017-05-13T10:58:50.015Z,35.20
2017-05-13T11:01:17.219Z,35.40
2017-05-13T11:03:44.364Z,36.50
2017-05-13T11:06:11.655Z,35.40
2017-05-13T11:08:38.824Z,35.30
2017-05-13T11:11:06.755Z,34.60
2017-05-13T11:13:33.971Z,35.00
2017-05-13T11:16:01.161Z,36.10
2017-05-13T11:18:28.365Z,37.60
2017-05-13T11:20:55.624Z,38.30
2017-05-13T11:23:22.816Z,41.90
2017-05-13T11:25:49.984Z,42.90
2017-05-13T11:28:17.206Z,45.20
2017-05-13T11:30:44.364Z,45.40
2017-05-13T11:33:11.601Z,47.40
2017-05-13T11:35:38.777Z,47.60
2017-05-13T11:38:05.958Z,47.30
2017-05-13T11:40:33.212Z,46.60
2017-05-13T11:43:00.384Z,46.10
2017-05-13T11:45:27.537Z,44.00
2017-05-13T11:47:54.732Z,43.80
2017-05-13T11:50:21.946Z,45.60
2017-05-13T11:52:49.120Z,43.80
2017-05-13T11:55:16.333Z,43.20
2017-05-13T11:57:43.574Z,43.50
2017-05-13T12:00:10.764Z,41.70
2017-05-13T12:02:37.957Z,35.60
2017-05-13T12:05:05.585Z,35.30
2017-05-13T12:07:32.752Z,37.00
2017-05-13T12:10:00.005Z,36.30
2017-05-13T12:12:27.948Z,35.20
2017-05-13T12:14:55.128Z,34.50
2017-05-13T12:17:23.057Z,36.50
2017-05-13T12:19:50.250Z,34.00
2017-05-13T12:22:18.570Z,32.80
2017-05-13T12:24:46.232Z,33.00
2017-05-13T12:27:13.944Z,32.60
2017-05-13T12:29:41.879Z,32.90
2017-05-13T12:32:09.045Z,32.00
2017-05-13T12:34:36.187Z,33.90
2017-05-13T12:37:04.183Z,34.10
2017-05-13T12:39:32.163Z,36.00
2017-05-13T12:41:59.358Z,33.00
2017-05-13T12:44:26.577Z,32.70
2017-05-13T12:46:53.735Z,31.90
2017-05-13T12:49:20.898Z,32.10
2017-05-13T12:51:48.090Z,30.90
2017-05-13T12:54:16.020Z,30.60
2017-05-13T12:56:43.240Z,31.70
2017-05-13T12:59:10.527Z,30.50
2017-05-13T13:01:37.790Z,28.50
2017-05-13T13:04:05.011Z,27.30
2017-05-13T13:06:32.320Z,27.40
2017-05-13T13:09:00.229Z,28.10
2017-05-13T13:11:27.493Z,30.20
2017-05-13T13:13:54.695Z,31.20
2017-05-13T13:16:22.627Z,29.30
2017-05-13T13:18:55.258Z,27.90
2017-05-13T13:21:22.416Z,30.30
2017-05-13T13:23:49.596Z,30.00
2017-05-13T13:26:16.868Z,29.00
2017-05-13T13:28:44.055Z,26.20
2017-05-13T13:31:11.344Z,28.00
2017-05-13T13:33:38.618Z,28.50
2017-05-13T13:36:05.826Z,29.00
2017-05-13T13:38:32.994Z,28.80
2017-05-13T13:41:00.173Z,28.80
2017-05-13T13:43:27.401Z,26.60
2017-05-13T13:45:54.665Z,27.20
2017-05-13T13:48:21.865Z,25.60
2017-05-13T13:50:49.055Z,25.30
2017-05-13T13:53:16.356Z,26.10
2017-05-13T13:55:44.347Z,24.40
2017-05-13T13:58:11.607Z,25.20
2017-05-13T14:00:38.777Z,25.50
2017-05-13T14:03:05.992Z,25.90
2017-05-13T14:05:33.223Z,26.10
2017-05-13T14:08:00.419Z,25.70
2017-05-13T14:10:27.625Z,27.60
2017-05-13T14:12:55.593Z,28.30
2017-05-13T14:15:31.802Z,28.30
2017-05-13T14:17:59.156Z,27.50
2017-05-13T14:20:26.384Z,26.30
2017-05-13T14:22:53.564Z,26.50
2017-05-13T14:25:20.956Z,28.50
2017-05-13T14:27:48.889Z,32.00
2017-05-13T14:30:16.128Z,31.40
2017-05-13T14:32:43.371Z,28.70
2017-05-13T14:35:10.675Z,29.20
2017-05-13T14:37:38.609Z,30.40
2017-05-13T14:40:05.901Z,29.00
2017-05-13T14:42:34.645Z,28.10
2017-05-13T14:45:01.819Z,28.90
2017-05-13T14:47:29.033Z,30.20
2017-05-13T14:49:56.287Z,32.30
2017-05-13T14:52:23.619Z,34.90
2017-05-13T14:54:50.800Z,37.50
2017-05-13T14:57:18.012Z,37.40
2017-05-13T14:59:45.268Z,38.50
2017-05-13T15:02:12.512Z,38.40
2017-05-13T15:04:40.667Z,39.60
2017-05-13T15:07:08.642Z,39.50
2017-05-13T15:09:36.609Z,40.00
2017-05-13T15:12:04.569Z,41.10
2017-05-13T15:14:32.779Z,41.50
2017-05-13T15:17:00.027Z,45.10
2017-05-13T15:19:27.228Z,47.50
2017-05-13T15:21:54.562Z,47.70
2017-05-13T15:24:21.818Z,47.20
2017-05-13T15:26:48.963Z,44.40
2017-05-13T15:29:16.154Z,42.60
2017-05-13T15:31:44.122Z,43.90
2017-05-13T15:34:12.051Z,46.00
2017-05-13T15:36:39.292Z,47.40
2017-05-13T15:39:06.541Z,46.70
2017-05-13T15:41:33.727Z,45.80
2017-05-13T15:44:00.996Z,43.80
2017-05-13T15:46:28.976Z,40.00
2017-05-13T15:48:56.334Z,40.10
2017-05-13T15:51:23.743Z,39.20
2017-05-13T15:53:51.014Z,37.20
2017-05-13T15:56:18.948Z,38.60
2017-05-13T15:58:46.345Z,38.70
2017-05-13T16:01:14.276Z,38.30
2017-05-13T16:03:41.516Z,39.50
2017-05-13T16:06:08.823Z,41.50
2017-05-13T16:08:36.799Z,41.60
2017-05-13T16:11:04.063Z,40.90
2017-05-13T16:13:31.280Z,39.90
2017-05-13T16:15:59.190Z,39.90
2017-05-13T16:18:26.417Z,41.70
2017-05-13T16:20:53.797Z,41.20
2017-05-13T16:23:21.037Z,40.70
2017-05-13T16:25:48.276Z,42.00
2017-05-13T16:28:15.529Z,42.50
2017-05-13T16:30:42.758Z,42.90
2017-05-13T16:33:10.965Z,43.00
2017-05-13T16:35:38.172Z,43.20
2017-05-13T16:38:05.597Z,42.00
2017-05-13T16:40:32.796Z,42.00
2017-05-13T16:43:00.735Z,42.50
2017-05-13T16:45:28.019Z,42.40
2017-05-13T16:47:55.997Z,42.20
2017-05-13T16:50:23.181Z,42.10
2017-05-13T16:52:50.378Z,42.20
2017-05-13T16:55:18.376Z,42.20
2017-05-13T16:57:45.580Z,42.40
2017-05-13T17:00:12.715Z,42.60
2017-05-13T17:02:39.908Z,43.20
2017-05-13T17:05:07.123Z,43.90
2017-05-13T17:07:34.328Z,44.70
2017-05-13T17:10:02.526Z,44.60
2017-05-13T17:12:29.809Z,45.60
2017-05-13T17:14:57.009Z,46.40
2017-05-13T17:17:24.216Z,46.40
2017-05-13T17:19:52.307Z,46.80
2017-05-13T17:22:20.173Z,47.00
2017-05-13T17:24:47.365Z,47.20
2017-05-13T17:27:14.568Z,47.50
2017-05-13T17:29:42.541Z,48.20
2017-05-13T17:32:09.697Z,48.70
2017-05-13T17:34:36.910Z,49.40
2017-05-13T17:37:04.855Z,49.80
2017-05-13T17:39:32.079Z,50.20
2017-05-13T17:41:59.249Z,49.80
2017-05-13T17:44:26.498Z,49.80
2017-05-13T17:46:53.694Z,49.70
2017-05-13T17:49:21.657Z,49.90
2017-05-13T17:51:49.636Z,51.60
2017-05-13T17:54:17.601Z,52.70
2017-05-13T17:56:45.495Z,53.20
2017-05-13T17:59:12.832Z,53.70
2017-05-13T18:01:40.704Z,53.30
2017-05-13T18:04:07.931Z,53.10
2017-05-13T18:06:35.084Z,54.70
2017-05-13T18:09:08.259Z,55.40
2017-05-13T18:11:35.394Z,56.20
2017-05-13T18:14:03.393Z,56.30
2017-05-13T18:16:30.692Z,57.10
2017-05-13T18:18:57.897Z,57.50
2017-05-13T18:21:25.105Z,58.10
2017-05-13T18:23:53.036Z,58.70
2017-05-13T18:26:20.247Z,59.30
2017-05-13T18:28:47.411Z,59.90
2017-05-13T18:31:15.032Z,60.80
2017-05-13T18:33:43.060Z,61.00
2017-05-13T18:36:10.237Z,61.40
2017-05-13T18:38:37.459Z,62.90
2017-05-13T18:41:04.697Z,64.20
2017-05-13T18:43:38.834Z,64.50
2017-05-13T18:46:06.046Z,65.20
2017-05-13T18:48:33.310Z,67.70
2017-05-13T18:51:00.540Z,70.00
2017-05-13T18:53:27.874Z,70.40
2017-05-13T18:55:55.837Z,69.40
2017-05-13T18:58:23.782Z,71.00
2017-05-13T19:00:51.010Z,70.10
2017-05-13T19:03:18.762Z,72.20
2017-05-13T19:05:45.926Z,72.50
2017-05-13T19:08:13.057Z,72.80
2017-05-13T19:10:40.299Z,73.00
2017-05-13T19:13:08.524Z,73.20
2017-05-13T19:15:35.752Z,73.40
2017-05-13T19:18:02.992Z,73.00
2017-05-13T19:20:30.155Z,70.80
2017-05-13T19:22:57.348Z,71.30
2017-05-13T19:25:25.334Z,71.20
2017-05-13T19:27:52.632Z,72.20
2017-05-13T19:30:19.888Z,71.50
2017-05-13T19:32:47.096Z,71.70
2017-05-13T19:35:14.487Z,70.80
2017-05-13T19:37:41.699Z,70.40
2017-05-13T19:40:08.911Z,71.80
2017-05-13T19:42:36.175Z,72.50
2017-05-13T19:45:04.230Z,74.10
2017-05-13T19:47:31.409Z,73.70
2017-05-13T19:49:58.645Z,74.00
2017-05-13T19:52:26.717Z,74.20
2017-05-13T19:54:54.771Z,72.50
2017-05-13T19:57:21.981Z,72.90
2017-05-13T19:59:49.157Z,74.00
2017-05-13T20:02:16.438Z,73.90
2017-05-13T20:04:44.383Z,74.00
2017-05-13T20:07:11.692Z,73.80
2017-05-13T20:09:38.972Z,73.40
2017-05-13T20:12:06.226Z,73.60
2017-05-13T20:14:33.404Z,73.40
2017-05-13T20:17:00.620Z,74.60
2017-05-13T20:19:27.817Z,76.20
2017-05-13T20:21:56.690Z,77.90
2017-05-13T20:24:24.054Z,79.10
2017-05-13T20:26:51.264Z,80.20
2017-05-13T20:29:18.441Z,81.40
2017-05-13T20:31:45.744Z,82.60
2017-05-13T20:34:15.028Z,83.30
2017-05-13T20:36:40.912Z,85.00
2017-05-13T20:39:08.170Z,87.20
2017-05-13T20:41:36.087Z,88.90
2017-05-13T20:44:03.363Z,90.50
2017-05-13T20:46:30.606Z,90.80
2017-05-13T20:48:57.824Z,92.50
2017-05-13T20:51:24.983Z,92.80
2017-05-13T20:53:52.188Z,93.40
2017-05-13T20:56:19.398Z,93.60
2017-05-13T20:58:46.591Z,94.30
2017-05-13T21:01:13.871Z,94.90
2017-05-13T21:03:41.059Z,95.90
2017-05-13T21:06:08.245Z,96.00
2017-05-13T21:08:35.477Z,96.50
2017-05-13T21:11:02.700Z,96.60
2017-05-13T21:13:29.881Z,97.00
2017-05-13T21:15:57.217Z,96.60
2017-05-13T21:18:24.404Z,96.80
2017-05-13T21:20:51.569Z,97.00
2017-05-13T21:23:19.495Z,97.70
2017-05-13T21:25:47.357Z,97.40
2017-05-13T21:28:14.558Z,97.20
2017-05-13T21:30:42.458Z,97.40
2017-05-13T21:33:09.670Z,97.70
2017-05-13T21:35:37.585Z,97.50
2017-05-13T21:38:10.814Z,97.80
2017-05-13T21:40:38.001Z,97.60
2017-05-13T21:43:05.201Z,98.10
2017-05-13T21:45:32.425Z,98.50
2017-05-13T21:47:59.612Z,98.90
2017-05-13T21:50:26.781Z,98.90
2017-05-13T21:52:54.763Z,98.70
2017-05-13T21:55:21.983Z,98.10
2017-05-13T21:57:49.158Z,98.80
2017-05-13T22:00:16.323Z,99.60
2017-05-13T22:02:43.522Z,99.70
2017-05-13T22:05:10.866Z,98.90
2017-05-13T22:07:38.049Z,97.80
2017-05-13T22:10:06.046Z,98.00
2017-05-13T22:12:33.337Z,98.10
2017-05-13T22:15:00.524Z,98.80
2017-05-13T22:17:28.482Z,98.90
2017-05-13T22:19:56.427Z,98.50
2017-05-13T22:22:23.624Z,97.80
2017-05-13T22:24:50.799Z,98.20
2017-05-13T22:27:18.068Z,98.80
2017-05-13T22:29:45.215Z,98.70
2017-05-13T22:32:12.506Z,99.10
2017-05-13T22:34:40.436Z,98.90
2017-05-13T22:37:07.680Z,98.90
2017-05-13T22:39:34.845Z,98.90
2017-05-13T22:42:02.023Z,98.70
2017-05-13T22:44:30.056Z,99.10
2017-05-13T22:46:57.211Z,99.40
2017-05-13T22:49:24.399Z,98.70
2017-05-13T22:51:52.364Z,98.20
2017-05-13T22:54:20.291Z,98.10
2017-05-13T22:56:47.481Z,97.80
2017-05-13T22:59:15.407Z,97.80
2017-05-13T23:01:42.596Z,98.00
2017-05-13T23:04:10.523Z,97.50
2017-05-13T23:06:37.706Z,97.60
2017-05-13T23:09:05.640Z,97.70
2017-05-13T23:11:32.800Z,97.80
2017-05-13T23:14:00.017Z,98.00
2017-05-13T23:16:27.321Z,98.00
2017-05-13T23:18:55.232Z,98.60
2017-05-13T23:21:22.415Z,99.00
2017-05-13T23:23:49.579Z,98.90
2017-05-13T23:26:16.760Z,98.80
2017-05-13T23:28:44.000Z,99.20
2017-05-13T23:31:11.888Z,99.20
2017-05-13T23:33:39.168Z,98.60
2017-05-13T23:36:06.420Z,98.70
2017-05-13T23:38:33.575Z,98.40
2017-05-13T23:41:00.760Z,98.60
2017-05-13T23:43:28.724Z,99.00
2017-05-13T23:45:55.839Z,98.80
2017-05-13T23:48:22.988Z,98.30
2017-05-13T23:50:50.244Z,98.00
2017-05-13T23:53:17.436Z,98.10
2017-05-13T23:55:45.372Z,98.10
2017-05-13T23:58:19.600Z,98.30
